createdAt,value
2022-10-11T00:00:43.860Z,14.90
2022-10-11T00:03:11.920Z,14.80
2022-10-11T00:05:40.261Z,14.80
2022-10-11T00:08:08.259Z,14.70
2022-10-11T00:10:37.603Z,14.70
2022-10-11T00:13:06.419Z,14.60
2022-10-11T00:15:34.817Z,14.70
2022-10-11T00:18:05.386Z,14.70
2022-10-11T00:20:34.097Z,14.60
2022-10-11T00:23:02.091Z,14.50
2022-10-11T00:25:30.031Z,14.50
2022-10-11T00:27:59.395Z,14.40
2022-10-11T00:30:27.410Z,14.40
2022-10-11T00:32:55.401Z,14.40
2022-10-11T00:35:23.440Z,14.40
2022-10-11T00:37:51.437Z,14.40
2022-10-11T00:40:21.746Z,14.60
2022-10-11T00:42:49.752Z,14.40
2022-10-11T00:46:00.397Z,14.50
2022-10-11T00:48:33.655Z,14.40
2022-10-11T00:51:04.192Z,14.40
2022-10-11T00:53:33.726Z,14.50
2022-10-11T00:56:05.941Z,14.50
2022-10-11T00:58:35.849Z,14.50
2022-10-11T01:01:05.600Z,14.60
2022-10-11T01:03:37.408Z,14.60
2022-10-11T01:06:06.006Z,14.50
2022-10-11T01:08:35.224Z,14.40
2022-10-11T01:11:04.435Z,14.40
2022-10-11T01:13:47.155Z,14.40
2022-10-11T01:16:23.631Z,14.50
2022-10-11T01:19:01.840Z,14.50
2022-10-11T01:21:38.443Z,14.40
2022-10-11T01:24:39.909Z,14.40
2022-10-11T01:27:38.088Z,14.40
2022-10-11T01:30:24.405Z,14.70
2022-10-11T01:33:07.665Z,14.40
2022-10-11T01:35:42.580Z,14.40
2022-10-11T01:38:30.380Z,14.50
2022-10-11T01:41:02.230Z,14.50
2022-10-11T01:43:31.396Z,14.60
2022-10-11T01:46:03.359Z,14.50
2022-10-11T01:48:31.524Z,14.70
2022-10-11T01:51:02.856Z,14.70
2022-10-11T01:54:13.414Z,14.50
2022-10-11T01:57:03.329Z,14.50
2022-10-11T01:59:41.993Z,14.50
2022-10-11T02:02:24.770Z,14.50
2022-10-11T02:04:57.573Z,14.50
2022-10-11T02:07:32.448Z,14.40
2022-10-11T02:10:06.996Z,14.40
2022-10-11T02:12:41.092Z,14.30
2022-10-11T02:15:12.060Z,14.30
2022-10-11T02:17:47.869Z,14.30
2022-10-11T02:20:22.036Z,14.50
2022-10-11T02:22:54.110Z,14.30
2022-10-11T02:25:26.310Z,14.30
2022-10-11T02:27:58.050Z,14.30
2022-10-11T02:30:26.391Z,14.20
2022-10-11T02:32:57.714Z,14.20
2022-10-11T02:35:28.570Z,14.20
2022-10-11T02:38:02.994Z,14.30
2022-10-11T02:40:33.730Z,14.30
2022-10-11T02:43:06.101Z,14.20
2022-10-11T02:45:39.458Z,14.30
2022-10-11T02:48:12.399Z,14.40
2022-10-11T02:50:41.531Z,14.40
2022-10-11T02:53:10.140Z,14.20
2022-10-11T02:55:38.166Z,14.10
2022-10-11T02:58:06.195Z,14.10
2022-10-11T03:00:34.378Z,14.30
2022-10-11T03:03:02.867Z,14.10
2022-10-11T03:05:37.137Z,14.10
2022-10-11T03:08:05.173Z,14.10
2022-10-11T03:10:33.782Z,14.10
2022-10-11T03:13:01.988Z,14.10
2022-10-11T03:15:30.410Z,14.00
2022-10-11T03:17:58.987Z,14.00
2022-10-11T03:20:27.345Z,13.90
2022-10-11T03:22:57.207Z,13.90
2022-10-11T03:25:25.232Z,13.80
2022-10-11T03:27:53.581Z,13.70
2022-10-11T03:30:21.574Z,13.80
2022-10-11T03:32:49.561Z,13.70
2022-10-11T03:35:17.948Z,13.70
2022-10-11T03:37:46.413Z,13.70
2022-10-11T03:40:16.129Z,13.70
2022-10-11T03:42:44.127Z,13.70
2022-10-11T03:45:12.393Z,13.80
2022-10-11T03:47:41.180Z,13.90
2022-10-11T03:50:10.714Z,13.80
2022-10-11T03:52:38.710Z,13.80
2022-10-11T03:55:07.530Z,13.80
2022-10-11T03:57:36.950Z,13.80
2022-10-11T04:00:06.581Z,13.80
2022-10-11T04:02:38.941Z,13.80
2022-10-11T04:05:08.127Z,13.80
2022-10-11T04:07:36.327Z,13.80
2022-10-11T04:10:04.487Z,13.80
2022-10-11T04:12:32.650Z,13.80
2022-10-11T04:15:01.991Z,14.00
2022-10-11T04:17:30.061Z,13.90
2022-10-11T04:19:58.066Z,13.90
2022-10-11T04:22:26.455Z,14.10
2022-10-11T04:24:54.446Z,14.20
2022-10-11T04:27:22.524Z,14.00
2022-10-11T04:29:50.536Z,14.00
2022-10-11T04:32:19.875Z,13.90
2022-10-11T04:34:48.224Z,13.90
2022-10-11T04:37:16.288Z,13.90
2022-10-11T04:39:44.365Z,14.00
2022-10-11T04:42:12.960Z,14.00
2022-10-11T04:44:40.957Z,14.00
2022-10-11T04:47:09.113Z,14.00
2022-10-11T04:49:38.588Z,14.20
2022-10-11T04:52:06.929Z,14.30
2022-10-11T04:54:34.911Z,14.20
2022-10-11T04:57:02.946Z,14.10
2022-10-11T04:59:31.061Z,14.00
2022-10-11T05:01:59.160Z,13.90
2022-10-11T05:04:27.344Z,13.90
2022-10-11T05:06:56.708Z,13.80
2022-10-11T05:09:24.836Z,13.70
2022-10-11T05:11:52.868Z,13.80
2022-10-11T05:14:20.858Z,13.90
2022-10-11T05:16:48.870Z,13.90
2022-10-11T05:19:16.875Z,13.90
2022-10-11T05:21:45.003Z,13.90
2022-10-11T05:24:14.465Z,14.00
2022-10-11T05:26:42.485Z,14.20
2022-10-11T05:29:10.473Z,14.00
2022-10-11T05:31:38.596Z,14.10
2022-10-11T05:34:06.572Z,14.40
2022-10-11T05:36:34.609Z,14.20
2022-10-11T05:39:03.739Z,14.40
2022-10-11T05:41:33.072Z,14.20
2022-10-11T05:44:01.067Z,14.10
2022-10-11T05:46:29.055Z,14.00
2022-10-11T05:48:57.107Z,14.00
2022-10-11T05:51:25.122Z,13.90
2022-10-11T05:53:53.077Z,13.90
2022-10-11T05:56:23.289Z,13.90
2022-10-11T05:58:53.315Z,14.00
2022-10-11T06:01:22.661Z,14.00
2022-10-11T06:03:51.339Z,14.20
2022-10-11T06:06:20.389Z,14.10
2022-10-11T06:08:48.931Z,14.10
2022-10-11T06:11:18.849Z,14.10
2022-10-11T06:13:46.920Z,14.10
2022-10-11T06:16:16.355Z,14.10
2022-10-11T06:18:44.427Z,14.30
2022-10-11T06:21:13.205Z,14.50
2022-10-11T06:23:41.277Z,14.40
2022-10-11T06:26:10.191Z,14.40
2022-10-11T06:28:38.684Z,14.40
2022-10-11T06:31:08.053Z,14.50
2022-10-11T06:33:38.319Z,14.50
2022-10-11T06:36:08.932Z,14.50
2022-10-11T06:38:40.999Z,14.40
2022-10-11T06:41:14.199Z,14.60
2022-10-11T06:43:42.326Z,14.50
2022-10-11T06:46:10.798Z,14.40
2022-10-11T06:48:43.414Z,14.50
2022-10-11T06:51:11.570Z,14.50
2022-10-11T06:53:39.680Z,14.50
2022-10-11T06:56:10.058Z,14.60
2022-10-11T06:58:38.186Z,14.60
2022-10-11T07:01:08.678Z,14.90
2022-10-11T07:03:37.055Z,14.70
2022-10-11T07:06:10.012Z,14.70
2022-10-11T07:08:39.050Z,14.80
2022-10-11T07:11:08.660Z,14.70
2022-10-11T07:13:37.159Z,14.80
2022-10-11T07:16:06.893Z,14.80
2022-10-11T07:18:35.589Z,14.80
2022-10-11T07:21:06.768Z,14.80
2022-10-11T07:23:34.921Z,14.90
2022-10-11T07:26:03.449Z,15.10
2022-10-11T07:28:32.152Z,14.90
2022-10-11T07:31:00.583Z,15.00
2022-10-11T07:33:28.593Z,14.90
2022-10-11T07:35:58.942Z,15.00
2022-10-11T07:38:28.409Z,15.00
2022-10-11T07:40:56.476Z,15.00
2022-10-11T07:43:24.544Z,15.00
2022-10-11T07:45:55.557Z,15.00
2022-10-11T07:48:23.869Z,15.00
2022-10-11T07:50:51.859Z,15.10
2022-10-11T07:53:20.065Z,15.00
2022-10-11T07:55:49.402Z,15.00
2022-10-11T07:58:17.385Z,14.90
2022-10-11T08:00:45.434Z,14.90
2022-10-11T08:03:14.087Z,14.90
2022-10-11T08:05:42.121Z,14.90
2022-10-11T08:08:10.335Z,14.90
2022-10-11T08:10:48.652Z,15.00
2022-10-11T08:13:20.243Z,15.00
2022-10-11T08:15:48.302Z,15.10
2022-10-11T08:18:25.699Z,15.20
2022-10-11T08:20:54.187Z,15.30
2022-10-11T08:23:22.276Z,15.30
2022-10-11T08:25:50.450Z,15.30
2022-10-11T08:28:21.514Z,15.30
2022-10-11T08:31:02.777Z,15.20
2022-10-11T08:33:31.310Z,15.30
2022-10-11T08:35:59.595Z,15.30
2022-10-11T08:38:30.992Z,15.40
2022-10-11T08:41:00.234Z,15.50
2022-10-11T08:44:20.698Z,15.50
2022-10-11T08:46:56.959Z,15.50
2022-10-11T08:49:31.860Z,15.60
2022-10-11T08:52:05.016Z,15.70
2022-10-11T08:54:43.126Z,15.80
2022-10-11T08:57:16.111Z,15.90
2022-10-11T08:59:50.043Z,16.00
2022-10-11T09:02:49.201Z,16.00
2022-10-11T09:05:22.979Z,16.00
2022-10-11T09:07:58.805Z,16.20
2022-10-11T09:10:44.948Z,16.30
2022-10-11T09:13:34.211Z,16.40
2022-10-11T09:16:11.907Z,16.50
2022-10-11T09:19:00.291Z,16.70
2022-10-11T09:21:37.551Z,16.80
2022-10-11T09:24:27.726Z,16.80
2022-10-11T09:26:57.541Z,16.80
2022-10-11T09:29:52.289Z,16.80
2022-10-11T09:32:22.096Z,16.90
2022-10-11T09:34:58.672Z,16.90
2022-10-11T09:37:32.763Z,16.90
2022-10-11T09:40:07.229Z,17.10
2022-10-11T09:42:35.367Z,17.20
2022-10-11T09:45:06.841Z,17.30
2022-10-11T09:47:34.843Z,17.30
2022-10-11T09:50:15.075Z,17.60
2022-10-11T09:52:49.787Z,17.50
2022-10-11T09:55:33.018Z,17.50
2022-10-11T09:58:01.472Z,17.40
2022-10-11T10:00:33.591Z,17.20
2022-10-11T10:03:03.738Z,17.10
2022-10-11T10:05:35.642Z,17.10
2022-10-11T10:08:23.508Z,17.00
2022-10-11T10:11:01.319Z,17.00
2022-10-11T10:13:37.306Z,16.90
2022-10-11T10:16:11.555Z,16.80
2022-10-11T10:18:44.371Z,16.90
2022-10-11T10:21:16.345Z,16.90
2022-10-11T10:23:44.913Z,16.90
2022-10-11T10:26:16.959Z,16.80
2022-10-11T10:29:04.955Z,16.80
2022-10-11T10:31:55.397Z,16.70
2022-10-11T10:34:29.922Z,16.70
2022-10-11T10:37:02.822Z,16.70
2022-10-11T10:39:37.315Z,16.60
2022-10-11T10:42:12.526Z,16.60
2022-10-11T10:44:40.765Z,16.60
2022-10-11T10:47:15.580Z,16.60
2022-10-11T10:49:54.040Z,16.60
2022-10-11T10:52:48.453Z,16.60
2022-10-11T10:55:25.086Z,16.60
2022-10-11T10:58:25.127Z,16.60
2022-10-11T11:00:58.537Z,16.50
2022-10-11T11:03:36.264Z,16.50
2022-10-11T11:06:08.160Z,16.40
2022-10-11T11:08:57.238Z,16.50
2022-10-11T11:11:43.543Z,16.50
2022-10-11T11:14:22.766Z,16.60
2022-10-11T11:16:59.656Z,16.60
2022-10-11T11:19:46.787Z,16.70
2022-10-11T11:22:22.207Z,16.80
2022-10-11T11:25:06.661Z,16.90
2022-10-11T11:27:50.794Z,17.10
2022-10-11T11:30:24.135Z,17.30
2022-10-11T11:33:00.851Z,17.40
2022-10-11T11:35:32.268Z,17.50
2022-10-11T11:38:06.468Z,17.50
2022-10-11T11:40:40.612Z,17.40
2022-10-11T11:43:17.009Z,17.40
2022-10-11T11:45:49.498Z,17.40
2022-10-11T11:48:21.540Z,17.40
2022-10-11T11:50:56.615Z,17.60
2022-10-11T11:53:33.574Z,17.50
2022-10-11T11:56:10.528Z,17.50
2022-10-11T11:58:47.430Z,17.60
2022-10-11T12:01:31.544Z,17.60
2022-10-11T12:04:03.870Z,17.60
2022-10-11T12:06:35.923Z,17.60
2022-10-11T12:09:10.379Z,17.70
2022-10-11T12:11:49.132Z,17.60
2022-10-11T12:14:27.388Z,17.70
2022-10-11T12:17:15.711Z,17.80
2022-10-11T12:19:59.466Z,17.80
2022-10-11T12:23:01.494Z,17.80
2022-10-11T12:25:44.275Z,17.80
2022-10-11T12:29:00.771Z,17.70
2022-10-11T12:31:31.161Z,17.70
2022-10-11T12:34:19.051Z,17.70
2022-10-11T12:36:48.285Z,17.70
2022-10-11T12:39:45.680Z,17.60
2022-10-11T12:42:26.117Z,17.50
2022-10-11T12:45:27.419Z,17.30
2022-10-11T12:48:05.599Z,17.20
2022-10-11T12:50:46.282Z,17.30
2022-10-11T12:53:30.990Z,17.20
2022-10-11T12:56:03.322Z,17.30
2022-10-11T12:58:38.861Z,17.40
2022-10-11T13:01:20.659Z,17.40
2022-10-11T13:04:00.990Z,17.50
2022-10-11T13:06:33.334Z,17.70
2022-10-11T13:09:06.484Z,17.70
2022-10-11T13:11:39.879Z,17.90
2022-10-11T13:14:11.017Z,18.00
2022-10-11T13:17:07.736Z,18.20
2022-10-11T13:22:20.062Z,18.40
2022-10-11T13:24:48.396Z,18.30
2022-10-11T13:27:21.623Z,18.10
2022-10-11T13:29:52.168Z,18.10
2022-10-11T13:32:23.810Z,18.00
2022-10-11T13:37:31.267Z,18.00
2022-10-11T13:40:00.042Z,17.80
2022-10-11T13:42:31.802Z,17.60
2022-10-11T13:45:00.366Z,17.60
2022-10-11T13:47:30.784Z,17.50
2022-10-11T13:50:10.941Z,17.40
2022-10-11T13:52:56.410Z,17.40
2022-10-11T13:55:27.570Z,17.40
2022-10-11T13:57:56.559Z,17.40
2022-10-11T14:00:28.013Z,17.30
2022-10-11T14:02:59.911Z,17.40
2022-10-11T14:05:36.481Z,17.40
2022-10-11T14:08:07.646Z,17.30
2022-10-11T14:10:36.001Z,17.20
2022-10-11T14:13:07.623Z,17.20
2022-10-11T14:15:37.139Z,17.20
2022-10-11T14:18:40.518Z,17.20
2022-10-11T14:21:32.574Z,17.20
2022-10-11T14:24:03.125Z,17.20
2022-10-11T14:26:34.972Z,17.10
2022-10-11T14:29:08.144Z,16.90
2022-10-11T14:31:41.286Z,17.00
2022-10-11T14:34:16.016Z,17.10
2022-10-11T14:36:45.555Z,17.10
2022-10-11T14:39:17.634Z,17.00
2022-10-11T14:41:46.316Z,17.00
2022-10-11T14:44:16.728Z,17.00
2022-10-11T14:46:46.002Z,17.00
2022-10-11T14:49:16.274Z,17.00
2022-10-11T14:51:47.119Z,17.10
2022-10-11T14:54:17.830Z,17.10
2022-10-11T14:56:46.214Z,16.90
2022-10-11T14:59:16.710Z,17.10
2022-10-11T15:01:46.315Z,17.00
2022-10-11T15:04:14.481Z,17.00
2022-10-11T15:06:42.818Z,17.00
2022-10-11T15:09:12.281Z,17.00
2022-10-11T15:11:40.696Z,17.10
2022-10-11T15:14:08.786Z,17.00
2022-10-11T15:16:37.027Z,17.00
2022-10-11T15:19:05.147Z,17.10
2022-10-11T15:21:35.395Z,17.00
2022-10-11T15:24:03.504Z,17.00
2022-10-11T15:26:34.016Z,16.90
2022-10-11T15:29:02.767Z,16.90
2022-10-11T15:31:34.156Z,16.90
2022-10-11T15:34:02.234Z,16.80
2022-10-11T15:36:30.649Z,16.80
2022-10-11T15:38:58.702Z,16.90
2022-10-11T15:41:26.820Z,16.60
2022-10-11T15:43:56.471Z,16.60
2022-10-11T15:46:24.743Z,16.60
2022-10-11T15:48:53.158Z,16.60
2022-10-11T15:51:21.311Z,16.60
2022-10-11T15:53:49.380Z,16.50
2022-10-11T15:56:19.714Z,16.50
2022-10-11T15:58:47.874Z,16.40
2022-10-11T16:01:19.413Z,16.40
2022-10-11T16:03:48.473Z,16.50
2022-10-11T16:06:16.759Z,16.40
2022-10-11T16:08:45.219Z,16.50
2022-10-11T16:11:13.714Z,16.50
2022-10-11T16:13:41.909Z,16.40
2022-10-11T16:16:10.805Z,16.40
2022-10-11T16:18:40.858Z,16.40
2022-10-11T16:21:10.690Z,16.30
2022-10-11T16:23:39.265Z,16.30
2022-10-11T16:26:10.946Z,16.30
2022-10-11T16:28:39.855Z,16.20
2022-10-11T16:31:09.155Z,16.20
2022-10-11T16:33:45.480Z,16.30
2022-10-11T16:36:31.109Z,16.20
2022-10-11T16:38:59.301Z,16.20
2022-10-11T16:41:27.437Z,16.20
2022-10-11T16:43:56.905Z,16.10
2022-10-11T16:46:25.600Z,16.00
2022-10-11T16:48:55.881Z,16.00
2022-10-11T16:51:26.015Z,15.90
2022-10-11T16:53:54.267Z,15.80
2022-10-11T16:56:24.126Z,15.80
2022-10-11T16:58:52.973Z,15.80
2022-10-11T17:01:21.903Z,15.80
2022-10-11T17:03:50.714Z,16.00
2022-10-11T17:06:19.224Z,15.80
2022-10-11T17:08:48.832Z,15.80
2022-10-11T17:11:17.679Z,15.80
2022-10-11T17:13:46.479Z,15.70
2022-10-11T17:16:14.750Z,15.60
2022-10-11T17:18:42.841Z,15.60
2022-10-11T17:21:14.029Z,15.70
2022-10-11T17:23:43.312Z,15.50
2022-10-11T17:26:17.699Z,15.50
2022-10-11T17:28:46.157Z,15.40
2022-10-11T17:31:14.505Z,15.50
2022-10-11T17:33:42.528Z,15.50
2022-10-11T17:36:16.829Z,15.40
2022-10-11T17:38:45.550Z,15.40
2022-10-11T17:41:15.125Z,15.40
2022-10-11T17:43:43.762Z,15.40
2022-10-11T17:46:14.326Z,15.40
2022-10-11T17:48:44.571Z,15.40
2022-10-11T17:51:14.392Z,15.30
2022-10-11T17:53:43.285Z,15.40
2022-10-11T17:56:13.088Z,15.30
2022-10-11T17:58:42.674Z,15.40
2022-10-11T18:01:13.132Z,15.30
2022-10-11T18:03:41.878Z,15.30
2022-10-11T18:06:13.662Z,15.40
2022-10-11T18:08:42.399Z,15.30
2022-10-11T18:11:13.818Z,15.30
2022-10-11T18:13:46.489Z,15.30
2022-10-11T18:16:15.825Z,15.30
2022-10-11T18:18:44.295Z,15.30
2022-10-11T18:21:13.055Z,15.20
2022-10-11T18:23:41.663Z,15.10
2022-10-11T18:26:11.469Z,15.10
2022-10-11T18:28:40.657Z,15.10
2022-10-11T18:31:13.751Z,15.10
2022-10-11T18:33:43.210Z,15.10
2022-10-11T18:36:13.582Z,15.10
2022-10-11T18:38:46.450Z,15.10
2022-10-11T18:41:16.727Z,15.10
2022-10-11T18:43:49.594Z,15.10
2022-10-11T18:46:19.874Z,15.10
2022-10-11T18:48:50.779Z,15.10
2022-10-11T18:51:21.381Z,15.00
2022-10-11T18:53:50.418Z,15.00
2022-10-11T18:56:21.664Z,15.00
2022-10-11T18:58:50.646Z,15.00
2022-10-11T19:01:22.855Z,15.00
2022-10-11T19:03:53.522Z,15.00
2022-10-11T19:06:24.460Z,15.00
2022-10-11T19:08:54.487Z,14.90
2022-10-11T19:11:25.412Z,14.90
2022-10-11T19:13:57.058Z,14.90
2022-10-11T19:16:28.021Z,14.80
2022-10-11T19:18:56.070Z,14.80
2022-10-11T19:21:24.353Z,14.80
2022-10-11T19:23:52.919Z,14.80
2022-10-11T19:26:22.807Z,14.80
2022-10-11T19:28:56.400Z,14.80
2022-10-11T19:31:26.049Z,14.80
2022-10-11T19:33:54.488Z,14.80
2022-10-11T19:36:22.631Z,14.80
2022-10-11T19:38:52.073Z,14.60
2022-10-11T19:41:21.559Z,14.70
2022-10-11T19:43:49.689Z,14.70
2022-10-11T19:46:37.947Z,14.70
2022-10-11T19:49:11.980Z,14.70
2022-10-11T19:51:40.018Z,14.70
2022-10-11T19:54:09.877Z,14.80
2022-10-11T19:56:38.625Z,14.70
2022-10-11T19:59:07.464Z,14.70
2022-10-11T20:01:37.123Z,14.70
2022-10-11T20:04:07.589Z,14.70
2022-10-11T20:06:39.847Z,14.70
2022-10-11T20:09:28.488Z,14.70
2022-10-11T20:11:56.873Z,14.70
2022-10-11T20:14:25.514Z,14.70
2022-10-11T20:16:53.702Z,14.70
2022-10-11T20:19:27.750Z,14.60
2022-10-11T20:22:00.098Z,14.70
2022-10-11T20:24:32.945Z,14.60
2022-10-11T20:27:02.319Z,14.70
2022-10-11T20:29:30.453Z,14.60
2022-10-11T20:31:58.988Z,14.60
2022-10-11T20:34:28.319Z,14.80
2022-10-11T20:36:56.604Z,14.70
2022-10-11T20:39:26.472Z,14.50
2022-10-11T20:41:55.069Z,14.50
2022-10-11T20:44:23.191Z,14.50
2022-10-11T20:46:51.311Z,14.40
2022-10-11T20:49:20.719Z,14.50
2022-10-11T20:51:49.131Z,14.50
2022-10-11T20:54:17.674Z,14.50
2022-10-11T20:56:47.097Z,14.40
2022-10-11T20:59:15.134Z,14.40
2022-10-11T21:01:43.507Z,14.70
2022-10-11T21:04:18.475Z,14.60
2022-10-11T21:06:47.137Z,14.60
2022-10-11T21:09:17.003Z,14.50
2022-10-11T21:11:46.575Z,14.40
2022-10-11T21:14:14.876Z,14.40
2022-10-11T21:16:43.128Z,14.30
2022-10-11T21:19:15.035Z,14.30
2022-10-11T21:21:43.319Z,14.40
2022-10-11T21:24:11.714Z,14.40
2022-10-11T21:26:39.813Z,14.50
2022-10-11T21:29:09.193Z,14.40
2022-10-11T21:31:37.584Z,14.50
2022-10-11T21:34:07.465Z,14.50
2022-10-11T21:36:35.518Z,14.40
2022-10-11T21:39:03.844Z,14.40
2022-10-11T21:41:31.877Z,14.20
2022-10-11T21:43:59.990Z,14.20
2022-10-11T21:49:20.216Z,14.10
2022-10-11T21:51:48.300Z,14.20
2022-10-11T21:54:16.557Z,14.30
2022-10-11T21:56:44.630Z,14.30
2022-10-11T21:59:13.176Z,14.20
2022-10-11T22:01:44.019Z,14.30
2022-10-11T22:04:12.871Z,14.30
2022-10-11T22:06:41.385Z,14.20
2022-10-11T22:09:09.695Z,14.40
2022-10-11T22:11:38.705Z,14.40
2022-10-11T22:14:07.369Z,14.30
2022-10-11T22:16:35.904Z,14.20
2022-10-11T22:19:05.524Z,14.10
2022-10-11T22:21:33.590Z,14.20
2022-10-11T22:24:01.676Z,14.30
2022-10-11T22:26:31.768Z,14.20
2022-10-11T22:29:00.678Z,14.20
2022-10-11T22:31:29.609Z,14.10
2022-10-11T22:33:58.591Z,14.10
2022-10-11T22:36:30.487Z,14.10
2022-10-11T22:38:59.425Z,14.10
2022-10-11T22:41:27.573Z,14.10
2022-10-11T22:43:55.659Z,14.10
2022-10-11T22:46:23.736Z,14.10
2022-10-11T22:48:51.787Z,14.40
2022-10-11T22:51:19.958Z,14.50
2022-10-11T22:53:49.517Z,14.50
2022-10-11T22:56:17.671Z,14.30
2022-10-11T22:58:45.857Z,14.20
2022-10-11T23:01:16.120Z,14.00
2022-10-11T23:03:44.405Z,13.90
2022-10-11T23:06:12.476Z,13.80
2022-10-11T23:08:40.502Z,13.80
2022-10-11T23:11:11.287Z,13.90
2022-10-11T23:13:39.274Z,13.80
2022-10-11T23:16:08.428Z,13.90
2022-10-11T23:18:36.538Z,13.90
2022-10-11T23:21:05.157Z,13.90
2022-10-11T23:23:33.668Z,14.00
2022-10-11T23:26:06.003Z,14.00
2022-10-11T23:28:35.787Z,14.00
2022-10-11T23:31:08.798Z,14.00
2022-10-11T23:33:37.021Z,14.00
2022-10-11T23:36:05.446Z,14.10
2022-10-11T23:38:33.455Z,14.00
2022-10-11T23:41:01.569Z,14.00
2022-10-11T23:43:29.596Z,14.00
2022-10-11T23:45:59.010Z,14.00
2022-10-11T23:48:27.018Z,14.00
2022-10-11T23:50:55.096Z,14.10
2022-10-11T23:53:23.207Z,14.00
2022-10-11T23:55:51.976Z,14.20
2022-10-11T23:58:20.079Z,14.20
